sensor_id;sensor_type;location;lat;lon;timestamp;P1;durP1;ratioP1;P2;durP2;ratioP2
80235;SDS011;69543;42.138;24.742;2023-05-10T00:01:45;3.13;;;2.80;;
80235;SDS011;69543;42.138;24.742;2023-05-10T00:04:11;3.15;;;2.53;;
80235;SDS011;69543;42.138;24.742;2023-05-10T00:06:37;3.10;;;2.80;;
80235;SDS011;69543;42.138;24.742;2023-05-10T00:09:02;3.15;;;2.85;;
80235;SDS011;69543;42.138;24.742;2023-05-10T00:11:28;5.05;;;2.88;;
80235;SDS011;69543;42.138;24.742;2023-05-10T00:13:54;3.28;;;2.92;;
80235;SDS011;69543;42.138;24.742;2023-05-10T00:16:20;3.30;;;3.00;;
80235;SDS011;69543;42.138;24.742;2023-05-10T00:18:46;2.95;;;2.58;;
80235;SDS011;69543;42.138;24.742;2023-05-10T00:21:12;4.07;;;2.78;;
80235;SDS011;69543;42.138;24.742;2023-05-10T00:23:37;3.80;;;2.95;;
80235;SDS011;69543;42.138;24.742;2023-05-10T00:26:03;3.08;;;2.60;;
80235;SDS011;69543;42.138;24.742;2023-05-10T00:28:28;3.45;;;2.95;;
80235;SDS011;69543;42.138;24.742;2023-05-10T00:30:54;3.00;;;2.33;;
80235;SDS011;69543;42.138;24.742;2023-05-10T00:33:20;3.35;;;2.97;;
80235;SDS011;69543;42.138;24.742;2023-05-10T00:35:46;3.35;;;2.95;;
80235;SDS011;69543;42.138;24.742;2023-05-10T00:38:11;2.88;;;2.58;;
80235;SDS011;69543;42.138;24.742;2023-05-10T00:40:37;3.30;;;2.70;;
80235;SDS011;69543;42.138;24.742;2023-05-10T00:43:03;3.08;;;2.78;;
80235;SDS011;69543;42.138;24.742;2023-05-10T00:45:29;3.90;;;2.65;;
80235;SDS011;69543;42.138;24.742;2023-05-10T00:47:57;2.72;;;2.47;;
80235;SDS011;69543;42.138;24.742;2023-05-10T00:50:24;2.78;;;2.40;;
80235;SDS011;69543;42.138;24.742;2023-05-10T00:52:51;3.08;;;2.72;;
80235;SDS011;69543;42.138;24.742;2023-05-10T00:55:17;2.97;;;2.67;;
80235;SDS011;69543;42.138;24.742;2023-05-10T00:57:43;2.90;;;2.63;;
80235;SDS011;69543;42.138;24.742;2023-05-10T01:00:09;2.95;;;2.50;;
80235;SDS011;69543;42.138;24.742;2023-05-10T01:02:36;3.08;;;2.58;;
80235;SDS011;69543;42.138;24.742;2023-05-10T01:05:02;3.15;;;2.70;;
80235;SDS011;69543;42.138;24.742;2023-05-10T01:07:28;2.80;;;2.38;;
80235;SDS011;69543;42.138;24.742;2023-05-10T01:09:54;3.33;;;2.60;;
80235;SDS011;69543;42.138;24.742;2023-05-10T01:12:20;4.53;;;2.70;;
80235;SDS011;69543;42.138;24.742;2023-05-10T01:14:46;3.10;;;2.60;;
80235;SDS011;69543;42.138;24.742;2023-05-10T01:17:13;3.47;;;2.55;;
80235;SDS011;69543;42.138;24.742;2023-05-10T01:19:39;3.88;;;2.42;;
80235;SDS011;69543;42.138;24.742;2023-05-10T01:27:34;3.17;;;2.55;;
80235;SDS011;69543;42.138;24.742;2023-05-10T01:35:46;2.75;;;2.53;;
80235;SDS011;69543;42.138;24.742;2023-05-10T01:38:19;3.17;;;2.70;;
80235;SDS011;69543;42.138;24.742;2023-05-10T01:46:36;3.22;;;2.60;;
80235;SDS011;69543;42.138;24.742;2023-05-10T01:49:05;2.88;;;2.65;;
80235;SDS011;69543;42.138;24.742;2023-05-10T01:51:40;2.70;;;2.50;;
80235;SDS011;69543;42.138;24.742;2023-05-10T01:54:09;3.10;;;2.53;;
80235;SDS011;69543;42.138;24.742;2023-05-10T01:56:38;3.47;;;2.70;;
80235;SDS011;69543;42.138;24.742;2023-05-10T01:59:06;2.63;;;2.42;;
80235;SDS011;69543;42.138;24.742;2023-05-10T02:01:38;2.80;;;2.60;;
80235;SDS011;69543;42.138;24.742;2023-05-10T02:04:05;3.80;;;2.53;;
80235;SDS011;69543;42.138;24.742;2023-05-10T02:06:32;3.38;;;3.03;;
80235;SDS011;69543;42.138;24.742;2023-05-10T02:09:00;2.70;;;2.50;;
80235;SDS011;69543;42.138;24.742;2023-05-10T02:11:27;3.13;;;2.50;;
80235;SDS011;69543;42.138;24.742;2023-05-10T02:13:54;3.05;;;2.50;;
80235;SDS011;69543;42.138;24.742;2023-05-10T02:16:22;2.75;;;2.55;;
80235;SDS011;69543;42.138;24.742;2023-05-10T02:18:50;2.85;;;2.55;;
80235;SDS011;69543;42.138;24.742;2023-05-10T02:21:17;2.88;;;2.53;;
80235;SDS011;69543;42.138;24.742;2023-05-10T02:23:45;2.78;;;2.53;;
80235;SDS011;69543;42.138;24.742;2023-05-10T02:26:13;2.90;;;2.60;;
80235;SDS011;69543;42.138;24.742;2023-05-10T02:28:40;3.28;;;2.75;;
80235;SDS011;69543;42.138;24.742;2023-05-10T02:31:07;3.45;;;2.63;;
80235;SDS011;69543;42.138;24.742;2023-05-10T02:33:35;2.85;;;2.63;;
80235;SDS011;69543;42.138;24.742;2023-05-10T02:36:05;2.50;;;2.25;;
80235;SDS011;69543;42.138;24.742;2023-05-10T02:38:33;2.83;;;2.50;;
80235;SDS011;69543;42.138;24.742;2023-05-10T02:41:01;3.08;;;2.45;;
80235;SDS011;69543;42.138;24.742;2023-05-10T02:43:30;2.67;;;2.47;;
80235;SDS011;69543;42.138;24.742;2023-05-10T02:45:58;2.80;;;2.60;;
80235;SDS011;69543;42.138;24.742;2023-05-10T02:48:24;2.90;;;2.65;;
80235;SDS011;69543;42.138;24.742;2023-05-10T02:50:50;2.75;;;2.45;;
80235;SDS011;69543;42.138;24.742;2023-05-10T02:53:21;3.10;;;2.40;;
80235;SDS011;69543;42.138;24.742;2023-05-10T02:55:49;3.10;;;2.80;;
80235;SDS011;69543;42.138;24.742;2023-05-10T02:58:17;2.67;;;2.45;;
80235;SDS011;69543;42.138;24.742;2023-05-10T03:00:45;4.00;;;2.45;;
80235;SDS011;69543;42.138;24.742;2023-05-10T03:03:11;2.70;;;2.50;;
80235;SDS011;69543;42.138;24.742;2023-05-10T03:05:37;2.75;;;2.50;;
80235;SDS011;69543;42.138;24.742;2023-05-10T03:08:02;3.03;;;2.67;;
80235;SDS011;69543;42.138;24.742;2023-05-10T03:10:29;2.60;;;2.40;;
80235;SDS011;69543;42.138;24.742;2023-05-10T03:18:24;2.47;;;2.28;;
80235;SDS011;69543;42.138;24.742;2023-05-10T03:20:59;2.65;;;2.33;;
80235;SDS011;69543;42.138;24.742;2023-05-10T03:23:51;2.42;;;2.22;;
80235;SDS011;69543;42.138;24.742;2023-05-10T03:26:33;2.53;;;2.30;;
80235;SDS011;69543;42.138;24.742;2023-05-10T03:28:59;2.85;;;2.28;;
80235;SDS011;69543;42.138;24.742;2023-05-10T03:31:26;2.70;;;2.40;;
80235;SDS011;69543;42.138;24.742;2023-05-10T03:33:52;2.58;;;2.38;;
80235;SDS011;69543;42.138;24.742;2023-05-10T03:36:18;2.92;;;2.45;;
80235;SDS011;69543;42.138;24.742;2023-05-10T03:38:44;2.40;;;2.20;;
80235;SDS011;69543;42.138;24.742;2023-05-10T03:41:10;2.50;;;2.25;;
80235;SDS011;69543;42.138;24.742;2023-05-10T03:43:37;2.72;;;2.30;;
80235;SDS011;69543;42.138;24.742;2023-05-10T03:46:03;2.50;;;2.30;;
80235;SDS011;69543;42.138;24.742;2023-05-10T03:48:29;4.90;;;2.63;;
80235;SDS011;69543;42.138;24.742;2023-05-10T03:50:55;3.58;;;2.92;;
80235;SDS011;69543;42.138;24.742;2023-05-10T03:53:21;8.18;;;3.58;;
80235;SDS011;69543;42.138;24.742;2023-05-10T03:55:48;7.43;;;3.40;;
80235;SDS011;69543;42.138;24.742;2023-05-10T03:58:13;7.13;;;3.97;;
80235;SDS011;69543;42.138;24.742;2023-05-10T04:00:39;5.07;;;3.40;;
80235;SDS011;69543;42.138;24.742;2023-05-10T04:03:10;4.43;;;3.33;;
80235;SDS011;69543;42.138;24.742;2023-05-10T04:05:38;9.25;;;3.65;;
80235;SDS011;69543;42.138;24.742;2023-05-10T04:08:04;5.68;;;3.70;;
80235;SDS011;69543;42.138;24.742;2023-05-10T04:10:30;6.57;;;3.70;;
80235;SDS011;69543;42.138;24.742;2023-05-10T04:12:56;9.52;;;3.97;;
80235;SDS011;69543;42.138;24.742;2023-05-10T04:15:22;11.35;;;4.05;;
80235;SDS011;69543;42.138;24.742;2023-05-10T04:17:48;10.80;;;4.32;;
80235;SDS011;69543;42.138;24.742;2023-05-10T04:20:15;6.15;;;3.70;;
80235;SDS011;69543;42.138;24.742;2023-05-10T04:22:41;9.88;;;4.05;;
80235;SDS011;69543;42.138;24.742;2023-05-10T04:25:07;7.75;;;4.10;;
80235;SDS011;69543;42.138;24.742;2023-05-10T04:27:33;6.00;;;4.30;;
80235;SDS011;69543;42.138;24.742;2023-05-10T04:29:58;11.57;;;5.38;;
80235;SDS011;69543;42.138;24.742;2023-05-10T04:32:24;11.80;;;4.55;;
80235;SDS011;69543;42.138;24.742;2023-05-10T04:34:50;11.65;;;4.30;;
80235;SDS011;69543;42.138;24.742;2023-05-10T04:37:17;9.95;;;5.13;;
80235;SDS011;69543;42.138;24.742;2023-05-10T04:39:43;6.75;;;4.10;;
80235;SDS011;69543;42.138;24.742;2023-05-10T04:42:09;9.48;;;4.28;;
80235;SDS011;69543;42.138;24.742;2023-05-10T04:44:34;8.23;;;4.38;;
80235;SDS011;69543;42.138;24.742;2023-05-10T04:47:01;11.52;;;4.72;;
80235;SDS011;69543;42.138;24.742;2023-05-10T04:49:27;13.52;;;4.82;;
80235;SDS011;69543;42.138;24.742;2023-05-10T04:51:53;16.05;;;4.45;;
80235;SDS011;69543;42.138;24.742;2023-05-10T04:54:18;8.07;;;4.32;;
80235;SDS011;69543;42.138;24.742;2023-05-10T04:56:44;12.10;;;4.28;;
80235;SDS011;69543;42.138;24.742;2023-05-10T04:59:10;7.00;;;4.07;;
80235;SDS011;69543;42.138;24.742;2023-05-10T05:01:36;10.95;;;4.57;;
80235;SDS011;69543;42.138;24.742;2023-05-10T05:04:01;13.13;;;4.70;;
80235;SDS011;69543;42.138;24.742;2023-05-10T05:06:27;8.10;;;4.25;;
80235;SDS011;69543;42.138;24.742;2023-05-10T05:08:53;7.32;;;4.20;;
80235;SDS011;69543;42.138;24.742;2023-05-10T05:11:18;8.93;;;4.07;;
80235;SDS011;69543;42.138;24.742;2023-05-10T05:13:44;15.18;;;4.80;;
80235;SDS011;69543;42.138;24.742;2023-05-10T05:16:10;8.25;;;3.90;;
80235;SDS011;69543;42.138;24.742;2023-05-10T05:18:36;11.45;;;4.57;;
80235;SDS011;69543;42.138;24.742;2023-05-10T05:21:02;11.77;;;4.57;;
80235;SDS011;69543;42.138;24.742;2023-05-10T05:23:28;12.43;;;3.95;;
80235;SDS011;69543;42.138;24.742;2023-05-10T05:25:53;14.38;;;3.80;;
80235;SDS011;69543;42.138;24.742;2023-05-10T05:28:20;11.02;;;4.10;;
80235;SDS011;69543;42.138;24.742;2023-05-10T05:30:46;11.27;;;3.70;;
80235;SDS011;69543;42.138;24.742;2023-05-10T05:33:15;7.78;;;3.75;;
80235;SDS011;69543;42.138;24.742;2023-05-10T05:35:40;10.80;;;4.28;;
80235;SDS011;69543;42.138;24.742;2023-05-10T05:38:09;13.25;;;4.63;;
80235;SDS011;69543;42.138;24.742;2023-05-10T05:40:35;8.27;;;4.10;;
80235;SDS011;69543;42.138;24.742;2023-05-10T05:43:00;7.30;;;4.57;;
80235;SDS011;69543;42.138;24.742;2023-05-10T05:45:26;10.75;;;4.70;;
80235;SDS011;69543;42.138;24.742;2023-05-10T05:47:52;10.63;;;4.70;;
80235;SDS011;69543;42.138;24.742;2023-05-10T05:50:17;9.55;;;3.92;;
80235;SDS011;69543;42.138;24.742;2023-05-10T05:52:43;12.05;;;4.60;;
80235;SDS011;69543;42.138;24.742;2023-05-10T05:55:09;10.23;;;4.22;;
80235;SDS011;69543;42.138;24.742;2023-05-10T05:57:34;14.63;;;4.00;;
80235;SDS011;69543;42.138;24.742;2023-05-10T06:00:00;11.93;;;4.45;;
80235;SDS011;69543;42.138;24.742;2023-05-10T06:02:26;7.70;;;3.88;;
80235;SDS011;69543;42.138;24.742;2023-05-10T06:04:51;13.70;;;3.80;;
80235;SDS011;69543;42.138;24.742;2023-05-10T06:07:17;6.80;;;3.55;;
80235;SDS011;69543;42.138;24.742;2023-05-10T06:09:43;7.20;;;4.10;;
80235;SDS011;69543;42.138;24.742;2023-05-10T06:12:08;7.63;;;3.63;;
80235;SDS011;69543;42.138;24.742;2023-05-10T06:14:34;9.27;;;3.40;;
80235;SDS011;69543;42.138;24.742;2023-05-10T06:17:00;6.35;;;3.50;;
80235;SDS011;69543;42.138;24.742;2023-05-10T06:19:28;18.42;;;4.28;;
80235;SDS011;69543;42.138;24.742;2023-05-10T06:21:54;6.95;;;3.70;;
80235;SDS011;69543;42.138;24.742;2023-05-10T06:24:21;7.82;;;3.58;;
80235;SDS011;69543;42.138;24.742;2023-05-10T06:26:46;5.15;;;3.80;;
80235;SDS011;69543;42.138;24.742;2023-05-10T06:29:14;6.13;;;3.97;;
80235;SDS011;69543;42.138;24.742;2023-05-10T06:31:40;7.35;;;3.85;;
80235;SDS011;69543;42.138;24.742;2023-05-10T06:34:06;5.97;;;3.75;;
80235;SDS011;69543;42.138;24.742;2023-05-10T06:36:33;7.40;;;3.50;;
80235;SDS011;69543;42.138;24.742;2023-05-10T06:38:58;7.38;;;3.75;;
80235;SDS011;69543;42.138;24.742;2023-05-10T06:41:24;8.13;;;3.63;;
80235;SDS011;69543;42.138;24.742;2023-05-10T06:43:50;7.90;;;3.38;;
80235;SDS011;69543;42.138;24.742;2023-05-10T06:46:15;9.32;;;3.45;;
80235;SDS011;69543;42.138;24.742;2023-05-10T06:48:41;7.90;;;3.38;;
80235;SDS011;69543;42.138;24.742;2023-05-10T06:51:07;5.78;;;3.47;;
80235;SDS011;69543;42.138;24.742;2023-05-10T06:53:32;7.80;;;3.30;;
80235;SDS011;69543;42.138;24.742;2023-05-10T06:55:58;5.85;;;3.38;;
80235;SDS011;69543;42.138;24.742;2023-05-10T06:58:23;6.82;;;3.30;;
80235;SDS011;69543;42.138;24.742;2023-05-10T07:00:49;7.85;;;3.30;;
80235;SDS011;69543;42.138;24.742;2023-05-10T07:03:15;7.45;;;3.33;;
80235;SDS011;69543;42.138;24.742;2023-05-10T07:05:41;9.65;;;3.55;;
80235;SDS011;69543;42.138;24.742;2023-05-10T07:08:07;7.43;;;3.38;;
80235;SDS011;69543;42.138;24.742;2023-05-10T07:10:33;13.32;;;3.28;;
80235;SDS011;69543;42.138;24.742;2023-05-10T07:12:59;4.10;;;3.20;;
80235;SDS011;69543;42.138;24.742;2023-05-10T07:15:26;7.88;;;3.30;;
80235;SDS011;69543;42.138;24.742;2023-05-10T07:17:51;7.78;;;3.08;;
80235;SDS011;69543;42.138;24.742;2023-05-10T07:20:17;7.10;;;3.47;;
80235;SDS011;69543;42.138;24.742;2023-05-10T07:22:43;4.00;;;3.13;;
80235;SDS011;69543;42.138;24.742;2023-05-10T07:25:09;7.40;;;3.58;;
80235;SDS011;69543;42.138;24.742;2023-05-10T07:27:35;7.15;;;3.78;;
80235;SDS011;69543;42.138;24.742;2023-05-10T07:30:01;5.78;;;3.20;;
80235;SDS011;69543;42.138;24.742;2023-05-10T07:32:27;5.22;;;3.30;;
80235;SDS011;69543;42.138;24.742;2023-05-10T07:34:53;6.40;;;3.40;;
80235;SDS011;69543;42.138;24.742;2023-05-10T07:37:18;4.75;;;3.20;;
80235;SDS011;69543;42.138;24.742;2023-05-10T07:39:44;6.05;;;3.30;;
80235;SDS011;69543;42.138;24.742;2023-05-10T07:42:10;5.75;;;3.20;;
80235;SDS011;69543;42.138;24.742;2023-05-10T07:44:35;8.57;;;3.40;;
80235;SDS011;69543;42.138;24.742;2023-05-10T07:47:01;4.47;;;3.05;;
80235;SDS011;69543;42.138;24.742;2023-05-10T07:49:27;9.63;;;3.50;;
80235;SDS011;69543;42.138;24.742;2023-05-10T07:51:52;4.43;;;3.20;;
80235;SDS011;69543;42.138;24.742;2023-05-10T07:54:18;6.15;;;3.20;;
80235;SDS011;69543;42.138;24.742;2023-05-10T07:56:44;12.77;;;3.20;;
80235;SDS011;69543;42.138;24.742;2023-05-10T07:59:14;10.55;;;2.88;;
80235;SDS011;69543;42.138;24.742;2023-05-10T08:01:41;12.45;;;3.65;;
80235;SDS011;69543;42.138;24.742;2023-05-10T08:04:07;14.15;;;3.28;;
80235;SDS011;69543;42.138;24.742;2023-05-10T08:06:33;7.95;;;3.05;;
80235;SDS011;69543;42.138;24.742;2023-05-10T08:08:59;13.55;;;3.40;;
80235;SDS011;69543;42.138;24.742;2023-05-10T08:11:25;10.35;;;3.22;;
80235;SDS011;69543;42.138;24.742;2023-05-10T08:13:52;12.73;;;3.00;;
80235;SDS011;69543;42.138;24.742;2023-05-10T08:16:18;11.38;;;3.25;;
80235;SDS011;69543;42.138;24.742;2023-05-10T08:18:45;10.52;;;3.00;;
80235;SDS011;69543;42.138;24.742;2023-05-10T08:21:11;9.50;;;3.47;;
80235;SDS011;69543;42.138;24.742;2023-05-10T08:23:38;19.65;;;4.05;;
80235;SDS011;69543;42.138;24.742;2023-05-10T08:26:04;8.85;;;2.97;;
80235;SDS011;69543;42.138;24.742;2023-05-10T08:28:30;13.07;;;3.15;;
80235;SDS011;69543;42.138;24.742;2023-05-10T08:30:56;6.32;;;3.17;;
80235;SDS011;69543;42.138;24.742;2023-05-10T08:33:21;12.48;;;3.53;;
80235;SDS011;69543;42.138;24.742;2023-05-10T08:35:47;8.80;;;3.35;;
80235;SDS011;69543;42.138;24.742;2023-05-10T08:38:13;9.15;;;3.35;;
80235;SDS011;69543;42.138;24.742;2023-05-10T08:40:42;10.43;;;3.63;;
80235;SDS011;69543;42.138;24.742;2023-05-10T08:43:10;14.05;;;3.58;;
80235;SDS011;69543;42.138;24.742;2023-05-10T08:45:38;12.00;;;3.63;;
80235;SDS011;69543;42.138;24.742;2023-05-10T08:48:06;11.45;;;3.13;;
80235;SDS011;69543;42.138;24.742;2023-05-10T08:50:33;9.85;;;2.90;;
80235;SDS011;69543;42.138;24.742;2023-05-10T08:53:03;9.07;;;3.30;;
80235;SDS011;69543;42.138;24.742;2023-05-10T08:55:30;9.63;;;2.90;;
80235;SDS011;69543;42.138;24.742;2023-05-10T08:57:57;6.45;;;2.90;;
80235;SDS011;69543;42.138;24.742;2023-05-10T09:00:24;9.57;;;3.28;;
80235;SDS011;69543;42.138;24.742;2023-05-10T09:02:51;8.38;;;2.97;;
80235;SDS011;69543;42.138;24.742;2023-05-10T09:05:17;7.68;;;2.50;;
80235;SDS011;69543;42.138;24.742;2023-05-10T09:07:43;4.97;;;3.10;;
80235;SDS011;69543;42.138;24.742;2023-05-10T09:10:09;9.13;;;3.80;;
80235;SDS011;69543;42.138;24.742;2023-05-10T09:12:36;9.10;;;3.00;;
80235;SDS011;69543;42.138;24.742;2023-05-10T09:15:02;9.93;;;3.65;;
80235;SDS011;69543;42.138;24.742;2023-05-10T09:17:29;10.15;;;3.10;;
80235;SDS011;69543;42.138;24.742;2023-05-10T09:20:02;8.75;;;3.42;;
80235;SDS011;69543;42.138;24.742;2023-05-10T09:22:32;6.43;;;3.10;;
80235;SDS011;69543;42.138;24.742;2023-05-10T09:25:08;11.02;;;2.97;;
80235;SDS011;69543;42.138;24.742;2023-05-10T09:27:38;6.05;;;3.20;;
80235;SDS011;69543;42.138;24.742;2023-05-10T09:30:06;13.57;;;3.50;;
80235;SDS011;69543;42.138;24.742;2023-05-10T09:35:12;7.55;;;3.22;;
80235;SDS011;69543;42.138;24.742;2023-05-10T09:37:42;8.20;;;3.05;;
80235;SDS011;69543;42.138;24.742;2023-05-10T09:40:11;6.07;;;2.90;;
80235;SDS011;69543;42.138;24.742;2023-05-10T09:42:42;5.45;;;3.20;;
80235;SDS011;69543;42.138;24.742;2023-05-10T09:45:16;6.75;;;3.45;;
80235;SDS011;69543;42.138;24.742;2023-05-10T09:47:41;5.35;;;3.35;;
80235;SDS011;69543;42.138;24.742;2023-05-10T09:50:07;9.15;;;3.53;;
80235;SDS011;69543;42.138;24.742;2023-05-10T09:52:47;5.85;;;3.35;;
80235;SDS011;69543;42.138;24.742;2023-05-10T09:55:13;11.68;;;3.80;;
80235;SDS011;69543;42.138;24.742;2023-05-10T09:57:39;6.15;;;3.20;;
80235;SDS011;69543;42.138;24.742;2023-05-10T10:00:05;7.57;;;3.20;;
80235;SDS011;69543;42.138;24.742;2023-05-10T10:02:32;5.93;;;3.33;;
80235;SDS011;69543;42.138;24.742;2023-05-10T10:04:58;6.10;;;3.35;;
80235;SDS011;69543;42.138;24.742;2023-05-10T10:07:28;7.15;;;3.47;;
80235;SDS011;69543;42.138;24.742;2023-05-10T10:09:54;5.40;;;3.08;;
80235;SDS011;69543;42.138;24.742;2023-05-10T10:12:20;5.38;;;3.42;;
80235;SDS011;69543;42.138;24.742;2023-05-10T10:14:46;7.25;;;3.15;;
80235;SDS011;69543;42.138;24.742;2023-05-10T10:17:14;5.18;;;3.30;;
80235;SDS011;69543;42.138;24.742;2023-05-10T10:19:40;6.25;;;2.97;;
80235;SDS011;69543;42.138;24.742;2023-05-10T10:22:06;5.22;;;3.15;;
80235;SDS011;69543;42.138;24.742;2023-05-10T10:24:32;10.48;;;3.40;;
80235;SDS011;69543;42.138;24.742;2023-05-10T10:27:13;5.95;;;3.28;;
80235;SDS011;69543;42.138;24.742;2023-05-10T10:35:14;5.35;;;3.88;;
80235;SDS011;69543;42.138;24.742;2023-05-10T10:37:42;6.75;;;3.60;;
80235;SDS011;69543;42.138;24.742;2023-05-10T10:40:28;6.70;;;3.25;;
80235;SDS011;69543;42.138;24.742;2023-05-10T10:42:56;4.53;;;3.55;;
80235;SDS011;69543;42.138;24.742;2023-05-10T10:45:23;5.05;;;3.38;;
80235;SDS011;69543;42.138;24.742;2023-05-10T10:50:47;4.78;;;3.45;;
80235;SDS011;69543;42.138;24.742;2023-05-10T10:53:20;4.82;;;3.22;;
80235;SDS011;69543;42.138;24.742;2023-05-10T10:55:47;5.53;;;3.45;;
80235;SDS011;69543;42.138;24.742;2023-05-10T10:58:29;8.48;;;3.50;;
80235;SDS011;69543;42.138;24.742;2023-05-10T11:01:10;6.05;;;3.45;;
80235;SDS011;69543;42.138;24.742;2023-05-10T11:03:36;5.63;;;3.33;;
80235;SDS011;69543;42.138;24.742;2023-05-10T11:06:01;6.30;;;3.85;;
80235;SDS011;69543;42.138;24.742;2023-05-10T11:08:28;6.80;;;3.60;;
80235;SDS011;69543;42.138;24.742;2023-05-10T11:13:27;6.80;;;3.92;;
80235;SDS011;69543;42.138;24.742;2023-05-10T11:15:57;6.80;;;4.32;;
80235;SDS011;69543;42.138;24.742;2023-05-10T11:18:36;5.50;;;3.40;;
80235;SDS011;69543;42.138;24.742;2023-05-10T11:21:03;6.70;;;3.70;;
80235;SDS011;69543;42.138;24.742;2023-05-10T11:23:31;11.70;;;3.75;;
80235;SDS011;69543;42.138;24.742;2023-05-10T11:25:58;5.35;;;3.60;;
80235;SDS011;69543;42.138;24.742;2023-05-10T11:28:25;8.73;;;3.78;;
80235;SDS011;69543;42.138;24.742;2023-05-10T11:30:52;9.60;;;3.97;;
80235;SDS011;69543;42.138;24.742;2023-05-10T11:33:20;4.55;;;3.40;;
80235;SDS011;69543;42.138;24.742;2023-05-10T11:35:46;5.35;;;3.45;;
80235;SDS011;69543;42.138;24.742;2023-05-10T11:38:12;5.32;;;3.50;;
80235;SDS011;69543;42.138;24.742;2023-05-10T11:40:39;8.75;;;4.38;;
80235;SDS011;69543;42.138;24.742;2023-05-10T11:43:05;4.72;;;3.65;;
80235;SDS011;69543;42.138;24.742;2023-05-10T11:45:33;6.80;;;3.88;;
80235;SDS011;69543;42.138;24.742;2023-05-10T11:47:59;8.07;;;3.50;;
80235;SDS011;69543;42.138;24.742;2023-05-10T11:50:25;5.30;;;3.65;;
80235;SDS011;69543;42.138;24.742;2023-05-10T11:52:56;6.95;;;3.78;;
80235;SDS011;69543;42.138;24.742;2023-05-10T11:55:23;5.13;;;4.00;;
80235;SDS011;69543;42.138;24.742;2023-05-10T11:57:53;10.50;;;3.95;;
80235;SDS011;69543;42.138;24.742;2023-05-10T12:00:19;9.60;;;3.85;;
80235;SDS011;69543;42.138;24.742;2023-05-10T12:02:46;7.85;;;3.80;;
80235;SDS011;69543;42.138;24.742;2023-05-10T12:05:12;6.10;;;3.50;;
80235;SDS011;69543;42.138;24.742;2023-05-10T12:07:38;8.90;;;4.00;;
80235;SDS011;69543;42.138;24.742;2023-05-10T12:12:39;6.85;;;4.15;;
80235;SDS011;69543;42.138;24.742;2023-05-10T12:15:27;8.35;;;4.20;;
80235;SDS011;69543;42.138;24.742;2023-05-10T12:17:53;6.07;;;3.88;;
80235;SDS011;69543;42.138;24.742;2023-05-10T12:22:51;7.43;;;4.28;;
80235;SDS011;69543;42.138;24.742;2023-05-10T12:25:18;9.52;;;3.67;;
80235;SDS011;69543;42.138;24.742;2023-05-10T12:27:52;4.35;;;3.75;;
80235;SDS011;69543;42.138;24.742;2023-05-10T12:30:20;8.10;;;3.65;;
80235;SDS011;69543;42.138;24.742;2023-05-10T12:32:47;8.20;;;4.00;;
80235;SDS011;69543;42.138;24.742;2023-05-10T12:35:13;4.70;;;3.67;;
80235;SDS011;69543;42.138;24.742;2023-05-10T12:37:40;4.05;;;3.50;;
80235;SDS011;69543;42.138;24.742;2023-05-10T12:40:07;8.15;;;3.85;;
80235;SDS011;69543;42.138;24.742;2023-05-10T12:42:34;6.03;;;3.45;;
80235;SDS011;69543;42.138;24.742;2023-05-10T12:45:01;7.57;;;4.30;;
80235;SDS011;69543;42.138;24.742;2023-05-10T12:47:27;7.72;;;4.00;;
80235;SDS011;69543;42.138;24.742;2023-05-10T12:49:53;5.57;;;3.72;;
80235;SDS011;69543;42.138;24.742;2023-05-10T12:52:19;5.53;;;3.80;;
80235;SDS011;69543;42.138;24.742;2023-05-10T12:54:45;5.88;;;3.80;;
80235;SDS011;69543;42.138;24.742;2023-05-10T12:57:11;8.07;;;4.18;;
80235;SDS011;69543;42.138;24.742;2023-05-10T12:59:37;4.97;;;3.88;;
80235;SDS011;69543;42.138;24.742;2023-05-10T13:02:03;6.47;;;4.00;;
80235;SDS011;69543;42.138;24.742;2023-05-10T13:04:28;6.20;;;4.22;;
80235;SDS011;69543;42.138;24.742;2023-05-10T13:06:54;7.53;;;4.38;;
80235;SDS011;69543;42.138;24.742;2023-05-10T13:09:23;6.15;;;4.57;;
80235;SDS011;69543;42.138;24.742;2023-05-10T13:11:50;7.88;;;3.85;;
80235;SDS011;69543;42.138;24.742;2023-05-10T13:14:16;5.10;;;4.10;;
80235;SDS011;69543;42.138;24.742;2023-05-10T13:16:41;7.05;;;4.28;;
80235;SDS011;69543;42.138;24.742;2023-05-10T13:19:07;5.50;;;4.80;;
80235;SDS011;69543;42.138;24.742;2023-05-10T13:21:33;5.22;;;4.35;;
80235;SDS011;69543;42.138;24.742;2023-05-10T13:23:58;4.53;;;4.00;;
80235;SDS011;69543;42.138;24.742;2023-05-10T13:26:25;8.85;;;4.53;;
80235;SDS011;69543;42.138;24.742;2023-05-10T13:28:51;7.68;;;4.18;;
80235;SDS011;69543;42.138;24.742;2023-05-10T13:31:16;4.95;;;4.25;;
80235;SDS011;69543;42.138;24.742;2023-05-10T13:33:42;6.07;;;4.47;;
80235;SDS011;69543;42.138;24.742;2023-05-10T13:36:08;4.57;;;4.10;;
80235;SDS011;69543;42.138;24.742;2023-05-10T13:38:33;5.00;;;4.50;;
80235;SDS011;69543;42.138;24.742;2023-05-10T13:40:59;6.82;;;4.32;;
80235;SDS011;69543;42.138;24.742;2023-05-10T13:43:28;8.15;;;4.03;;
80235;SDS011;69543;42.138;24.742;2023-05-10T13:45:54;5.15;;;4.20;;
80235;SDS011;69543;42.138;24.742;2023-05-10T13:48:20;8.63;;;4.93;;
80235;SDS011;69543;42.138;24.742;2023-05-10T13:50:46;6.65;;;4.40;;
80235;SDS011;69543;42.138;24.742;2023-05-10T13:53:12;6.28;;;4.50;;
80235;SDS011;69543;42.138;24.742;2023-05-10T13:58:59;5.35;;;4.85;;
80235;SDS011;69543;42.138;24.742;2023-05-10T14:01:25;5.93;;;4.50;;
80235;SDS011;69543;42.138;24.742;2023-05-10T14:03:51;6.15;;;4.95;;
80235;SDS011;69543;42.138;24.742;2023-05-10T14:06:17;7.40;;;4.70;;
80235;SDS011;69543;42.138;24.742;2023-05-10T14:08:42;5.53;;;4.95;;
80235;SDS011;69543;42.138;24.742;2023-05-10T14:11:08;5.97;;;4.90;;
80235;SDS011;69543;42.138;24.742;2023-05-10T14:13:34;8.30;;;4.80;;
80235;SDS011;69543;42.138;24.742;2023-05-10T14:16:00;6.70;;;4.82;;
80235;SDS011;69543;42.138;24.742;2023-05-10T14:18:26;8.77;;;5.20;;
80235;SDS011;69543;42.138;24.742;2023-05-10T14:20:52;6.20;;;4.70;;
80235;SDS011;69543;42.138;24.742;2023-05-10T14:23:17;5.97;;;4.57;;
80235;SDS011;69543;42.138;24.742;2023-05-10T14:25:48;5.97;;;5.03;;
80235;SDS011;69543;42.138;24.742;2023-05-10T14:28:14;6.45;;;5.10;;
80235;SDS011;69543;42.138;24.742;2023-05-10T14:30:40;5.70;;;4.95;;
80235;SDS011;69543;42.138;24.742;2023-05-10T14:33:06;5.95;;;5.10;;
80235;SDS011;69543;42.138;24.742;2023-05-10T14:35:32;8.52;;;4.90;;
80235;SDS011;69543;42.138;24.742;2023-05-10T14:37:58;7.25;;;5.55;;
80235;SDS011;69543;42.138;24.742;2023-05-10T14:40:24;8.20;;;5.55;;
80235;SDS011;69543;42.138;24.742;2023-05-10T14:42:50;7.25;;;5.30;;
80235;SDS011;69543;42.138;24.742;2023-05-10T14:45:17;10.40;;;5.43;;
80235;SDS011;69543;42.138;24.742;2023-05-10T14:47:43;9.90;;;5.28;;
80235;SDS011;69543;42.138;24.742;2023-05-10T14:50:08;6.28;;;5.20;;
80235;SDS011;69543;42.138;24.742;2023-05-10T14:55:56;6.88;;;5.00;;
80235;SDS011;69543;42.138;24.742;2023-05-10T14:58:22;5.93;;;5.20;;
80235;SDS011;69543;42.138;24.742;2023-05-10T15:00:48;8.13;;;5.18;;
80235;SDS011;69543;42.138;24.742;2023-05-10T15:03:13;8.85;;;5.28;;
80235;SDS011;69543;42.138;24.742;2023-05-10T15:05:40;7.55;;;5.30;;
80235;SDS011;69543;42.138;24.742;2023-05-10T15:08:06;8.25;;;5.07;;
80235;SDS011;69543;42.138;24.742;2023-05-10T15:10:32;8.90;;;5.18;;
80235;SDS011;69543;42.138;24.742;2023-05-10T15:12:57;8.98;;;5.35;;
80235;SDS011;69543;42.138;24.742;2023-05-10T15:15:23;8.02;;;5.72;;
80235;SDS011;69543;42.138;24.742;2023-05-10T15:17:49;6.53;;;5.15;;
80235;SDS011;69543;42.138;24.742;2023-05-10T15:20:15;6.18;;;4.95;;